< < Back
Terminal Aerodrome Forecast


Current Version              Previous Versions:   1  2  3  4  5  6  7  8  9  

Terminal Aerodrome Forecast

827
FTUS44 KMOB 281100
TAFMOB
TAF
KMOB 281128Z 2812/2912 04006KT P6SM SKC
     FM281700 09007KT P6SM SKC
     FM282100 14006KT P6SM SKC=



Latest METAR

872
SAUS80 KWBC 290700
MTRMOB
METAR KMOB 290656Z AUTO 00000KT 10SM CLR 03/02 A3026 RMK AO2 SLP246
T00330022


USA.gov is the U.S. government's official web portal to all federal, state and local government web resources and services.